sensor_id;sensor_type;location;lat;lon;timestamp;temperature;humidity
17202;DHT22;8717;53.588;10.176;2022-12-18T00:02:06;-7.10;99.90
17202;DHT22;8717;53.588;10.176;2022-12-18T00:04:33;-7.10;99.90
17202;DHT22;8717;53.588;10.176;2022-12-18T00:07:00;-7.10;99.90
17202;DHT22;8717;53.588;10.176;2022-12-18T00:09:28;-7.10;99.90
17202;DHT22;8717;53.588;10.176;2022-12-18T00:11:54;-7.10;99.90
17202;DHT22;8717;53.588;10.176;2022-12-18T00:14:22;-7.20;99.90
17202;DHT22;8717;53.588;10.176;2022-12-18T00:16:49;-7.20;99.90
17202;DHT22;8717;53.588;10.176;2022-12-18T00:19:17;-7.20;99.90
17202;DHT22;8717;53.588;10.176;2022-12-18T00:21:44;-7.20;99.90
17202;DHT22;8717;53.588;10.176;2022-12-18T00:24:11;-7.20;99.90
17202;DHT22;8717;53.588;10.176;2022-12-18T00:26:39;-7.20;99.90
17202;DHT22;8717;53.588;10.176;2022-12-18T00:29:08;-7.20;99.90
17202;DHT22;8717;53.588;10.176;2022-12-18T00:31:37;-7.20;99.90
17202;DHT22;8717;53.588;10.176;2022-12-18T00:34:04;-7.20;99.90
17202;DHT22;8717;53.588;10.176;2022-12-18T00:36:33;-7.20;99.90
17202;DHT22;8717;53.588;10.176;2022-12-18T00:39:03;-7.20;99.90
17202;DHT22;8717;53.588;10.176;2022-12-18T00:41:31;-7.20;99.90
17202;DHT22;8717;53.588;10.176;2022-12-18T00:44:17;-7.10;99.90
17202;DHT22;8717;53.588;10.176;2022-12-18T00:46:45;-7.20;99.90
17202;DHT22;8717;53.588;10.176;2022-12-18T00:49:13;-7.20;99.90
17202;DHT22;8717;53.588;10.176;2022-12-18T00:51:41;-7.20;99.90
17202;DHT22;8717;53.588;10.176;2022-12-18T00:54:08;-7.20;99.90
17202;DHT22;8717;53.588;10.176;2022-12-18T00:56:36;-7.20;99.90
17202;DHT22;8717;53.588;10.176;2022-12-18T00:59:03;-7.30;99.90
17202;DHT22;8717;53.588;10.176;2022-12-18T01:01:31;-7.30;99.90
17202;DHT22;8717;53.588;10.176;2022-12-18T01:03:58;-7.30;99.90
17202;DHT22;8717;53.588;10.176;2022-12-18T01:06:25;-7.30;99.90
17202;DHT22;8717;53.588;10.176;2022-12-18T01:08:54;-7.30;99.90
17202;DHT22;8717;53.588;10.176;2022-12-18T01:11:21;-7.30;99.90
17202;DHT22;8717;53.588;10.176;2022-12-18T01:13:48;-7.30;99.90
17202;DHT22;8717;53.588;10.176;2022-12-18T01:16:16;-7.30;99.90
17202;DHT22;8717;53.588;10.176;2022-12-18T01:18:44;-7.20;99.90
17202;DHT22;8717;53.588;10.176;2022-12-18T01:21:13;-7.20;99.90
17202;DHT22;8717;53.588;10.176;2022-12-18T01:23:40;-7.20;99.90
17202;DHT22;8717;53.588;10.176;2022-12-18T01:26:10;-7.20;99.90
17202;DHT22;8717;53.588;10.176;2022-12-18T01:28:38;-7.20;99.90
17202;DHT22;8717;53.588;10.176;2022-12-18T01:31:13;-7.20;99.90
17202;DHT22;8717;53.588;10.176;2022-12-18T01:33:41;-7.20;99.90
17202;DHT22;8717;53.588;10.176;2022-12-18T01:36:08;-7.20;99.90
17202;DHT22;8717;53.588;10.176;2022-12-18T01:38:40;-7.20;99.90
17202;DHT22;8717;53.588;10.176;2022-12-18T01:41:09;-7.20;99.90
17202;DHT22;8717;53.588;10.176;2022-12-18T01:43:47;-7.20;99.90
17202;DHT22;8717;53.588;10.176;2022-12-18T01:46:15;-7.20;99.90
17202;DHT22;8717;53.588;10.176;2022-12-18T01:48:42;-7.20;99.90
17202;DHT22;8717;53.588;10.176;2022-12-18T01:51:11;-7.20;99.90
17202;DHT22;8717;53.588;10.176;2022-12-18T01:53:41;-7.20;99.90
17202;DHT22;8717;53.588;10.176;2022-12-18T01:56:12;-7.20;99.90
17202;DHT22;8717;53.588;10.176;2022-12-18T01:58:46;-7.20;99.90
17202;DHT22;8717;53.588;10.176;2022-12-18T02:01:15;-7.20;99.90
17202;DHT22;8717;53.588;10.176;2022-12-18T02:03:42;-7.20;99.90
17202;DHT22;8717;53.588;10.176;2022-12-18T02:06:15;-7.30;99.90
17202;DHT22;8717;53.588;10.176;2022-12-18T02:08:50;-7.30;99.90
17202;DHT22;8717;53.588;10.176;2022-12-18T02:11:32;-7.30;99.90
17202;DHT22;8717;53.588;10.176;2022-12-18T02:14:06;-7.30;99.90
17202;DHT22;8717;53.588;10.176;2022-12-18T02:16:40;-7.30;99.90
17202;DHT22;8717;53.588;10.176;2022-12-18T02:19:20;-7.30;99.90
17202;DHT22;8717;53.588;10.176;2022-12-18T02:21:52;-7.40;99.90
17202;DHT22;8717;53.588;10.176;2022-12-18T02:24:29;-7.40;99.90
17202;DHT22;8717;53.588;10.176;2022-12-18T02:27:03;-7.40;99.90
17202;DHT22;8717;53.588;10.176;2022-12-18T02:29:34;-7.40;99.90
17202;DHT22;8717;53.588;10.176;2022-12-18T02:32:03;-7.50;99.90
17202;DHT22;8717;53.588;10.176;2022-12-18T02:34:33;-7.50;99.90
17202;DHT22;8717;53.588;10.176;2022-12-18T02:37:06;-7.40;99.90
17202;DHT22;8717;53.588;10.176;2022-12-18T02:39:38;-7.50;99.90
17202;DHT22;8717;53.588;10.176;2022-12-18T02:42:07;-7.50;99.90
17202;DHT22;8717;53.588;10.176;2022-12-18T02:44:34;-7.50;99.90
17202;DHT22;8717;53.588;10.176;2022-12-18T02:47:03;-7.60;99.90
17202;DHT22;8717;53.588;10.176;2022-12-18T02:49:36;-7.60;99.90
17202;DHT22;8717;53.588;10.176;2022-12-18T02:52:11;-7.60;99.90
17202;DHT22;8717;53.588;10.176;2022-12-18T02:54:55;-7.60;99.90
17202;DHT22;8717;53.588;10.176;2022-12-18T02:57:34;-7.60;99.90
17202;DHT22;8717;53.588;10.176;2022-12-18T03:00:05;-7.60;99.90
17202;DHT22;8717;53.588;10.176;2022-12-18T03:02:38;-7.60;99.90
17202;DHT22;8717;53.588;10.176;2022-12-18T03:05:11;-7.60;99.90
17202;DHT22;8717;53.588;10.176;2022-12-18T03:07:45;-7.60;99.90
17202;DHT22;8717;53.588;10.176;2022-12-18T03:10:16;-7.60;99.90
17202;DHT22;8717;53.588;10.176;2022-12-18T03:12:50;-7.60;99.90
17202;DHT22;8717;53.588;10.176;2022-12-18T03:15:22;-7.60;99.90
17202;DHT22;8717;53.588;10.176;2022-12-18T03:18:04;-7.70;99.90
17202;DHT22;8717;53.588;10.176;2022-12-18T03:20:33;-7.70;99.90
17202;DHT22;8717;53.588;10.176;2022-12-18T03:23:06;-7.70;99.90
17202;DHT22;8717;53.588;10.176;2022-12-18T03:25:35;-7.70;99.90
17202;DHT22;8717;53.588;10.176;2022-12-18T03:28:06;-7.80;99.90
17202;DHT22;8717;53.588;10.176;2022-12-18T03:30:37;-7.80;99.90
17202;DHT22;8717;53.588;10.176;2022-12-18T03:33:07;-7.80;99.90
17202;DHT22;8717;53.588;10.176;2022-12-18T03:35:39;-7.80;99.90
17202;DHT22;8717;53.588;10.176;2022-12-18T03:38:06;-7.80;99.90
17202;DHT22;8717;53.588;10.176;2022-12-18T03:40:43;-7.80;99.90
17202;DHT22;8717;53.588;10.176;2022-12-18T03:43:16;-7.80;99.90
17202;DHT22;8717;53.588;10.176;2022-12-18T03:45:51;-7.80;99.90
17202;DHT22;8717;53.588;10.176;2022-12-18T03:48:22;-7.80;99.90
17202;DHT22;8717;53.588;10.176;2022-12-18T03:50:56;-7.80;99.90
17202;DHT22;8717;53.588;10.176;2022-12-18T03:53:32;-7.80;99.90
17202;DHT22;8717;53.588;10.176;2022-12-18T03:56:02;-7.80;99.90
17202;DHT22;8717;53.588;10.176;2022-12-18T03:58:37;-7.80;99.90
17202;DHT22;8717;53.588;10.176;2022-12-18T04:01:16;-7.80;99.90
17202;DHT22;8717;53.588;10.176;2022-12-18T04:03:44;-7.80;99.90
17202;DHT22;8717;53.588;10.176;2022-12-18T04:06:14;-7.80;99.90
17202;DHT22;8717;53.588;10.176;2022-12-18T04:08:42;-7.80;99.90
17202;DHT22;8717;53.588;10.176;2022-12-18T04:11:13;-7.80;99.90
17202;DHT22;8717;53.588;10.176;2022-12-18T04:13:42;-7.80;99.90
17202;DHT22;8717;53.588;10.176;2022-12-18T04:16:16;-7.80;99.90
17202;DHT22;8717;53.588;10.176;2022-12-18T04:18:44;-7.80;99.90
17202;DHT22;8717;53.588;10.176;2022-12-18T04:21:12;-7.80;99.90
17202;DHT22;8717;53.588;10.176;2022-12-18T04:23:39;-7.80;99.90
17202;DHT22;8717;53.588;10.176;2022-12-18T04:26:06;-7.90;99.90
17202;DHT22;8717;53.588;10.176;2022-12-18T04:28:52;-7.90;99.90
17202;DHT22;8717;53.588;10.176;2022-12-18T04:31:20;-7.90;99.90
17202;DHT22;8717;53.588;10.176;2022-12-18T04:33:46;-7.90;99.90
17202;DHT22;8717;53.588;10.176;2022-12-18T04:36:14;-7.90;99.90
17202;DHT22;8717;53.588;10.176;2022-12-18T04:38:40;-7.90;99.90
17202;DHT22;8717;53.588;10.176;2022-12-18T04:41:12;-7.90;99.90
17202;DHT22;8717;53.588;10.176;2022-12-18T04:43:40;-8.00;99.90
17202;DHT22;8717;53.588;10.176;2022-12-18T04:46:08;-8.00;99.90
17202;DHT22;8717;53.588;10.176;2022-12-18T04:48:36;-8.00;99.90
17202;DHT22;8717;53.588;10.176;2022-12-18T04:51:03;-8.00;99.90
17202;DHT22;8717;53.588;10.176;2022-12-18T04:53:29;-8.10;99.90
17202;DHT22;8717;53.588;10.176;2022-12-18T04:56:03;-8.10;99.90
17202;DHT22;8717;53.588;10.176;2022-12-18T04:58:30;-8.10;99.90
17202;DHT22;8717;53.588;10.176;2022-12-18T05:00:57;-8.10;99.90
17202;DHT22;8717;53.588;10.176;2022-12-18T05:03:25;-8.10;99.90
17202;DHT22;8717;53.588;10.176;2022-12-18T05:05:52;-8.10;99.90
17202;DHT22;8717;53.588;10.176;2022-12-18T05:08:19;-8.10;99.90
17202;DHT22;8717;53.588;10.176;2022-12-18T05:10:46;-8.10;99.90
17202;DHT22;8717;53.588;10.176;2022-12-18T05:13:13;-8.10;99.90
17202;DHT22;8717;53.588;10.176;2022-12-18T05:15:40;-8.10;99.90
17202;DHT22;8717;53.588;10.176;2022-12-18T05:18:08;-8.00;99.90
17202;DHT22;8717;53.588;10.176;2022-12-18T05:20:36;-8.00;99.90
17202;DHT22;8717;53.588;10.176;2022-12-18T05:23:02;-8.00;99.90
17202;DHT22;8717;53.588;10.176;2022-12-18T05:25:29;-8.00;99.90
17202;DHT22;8717;53.588;10.176;2022-12-18T05:27:56;-8.00;99.90
17202;DHT22;8717;53.588;10.176;2022-12-18T05:30:22;-8.00;99.90
17202;DHT22;8717;53.588;10.176;2022-12-18T05:32:49;-8.00;99.90
17202;DHT22;8717;53.588;10.176;2022-12-18T05:35:16;-8.00;99.90
17202;DHT22;8717;53.588;10.176;2022-12-18T05:37:44;-8.00;99.90
17202;DHT22;8717;53.588;10.176;2022-12-18T05:40:12;-7.90;99.90
17202;DHT22;8717;53.588;10.176;2022-12-18T05:42:39;-7.90;99.90
17202;DHT22;8717;53.588;10.176;2022-12-18T05:45:06;-8.00;99.90
17202;DHT22;8717;53.588;10.176;2022-12-18T05:47:33;-7.90;99.90
17202;DHT22;8717;53.588;10.176;2022-12-18T05:50:00;-7.90;99.90
17202;DHT22;8717;53.588;10.176;2022-12-18T05:52:27;-7.90;99.90
17202;DHT22;8717;53.588;10.176;2022-12-18T05:54:56;-7.90;99.90
17202;DHT22;8717;53.588;10.176;2022-12-18T05:57:24;-7.90;99.90
17202;DHT22;8717;53.588;10.176;2022-12-18T05:59:51;-7.90;99.90
17202;DHT22;8717;53.588;10.176;2022-12-18T06:02:18;-7.90;99.90
17202;DHT22;8717;53.588;10.176;2022-12-18T06:04:46;-7.90;99.90
17202;DHT22;8717;53.588;10.176;2022-12-18T06:07:13;-7.90;99.90
17202;DHT22;8717;53.588;10.176;2022-12-18T06:09:40;-8.00;99.90
17202;DHT22;8717;53.588;10.176;2022-12-18T06:12:08;-8.00;99.90
17202;DHT22;8717;53.588;10.176;2022-12-18T06:14:34;-8.00;99.90
17202;DHT22;8717;53.588;10.176;2022-12-18T06:17:01;-8.10;99.90
17202;DHT22;8717;53.588;10.176;2022-12-18T06:19:28;-8.10;99.90
17202;DHT22;8717;53.588;10.176;2022-12-18T06:21:54;-8.10;99.90
17202;DHT22;8717;53.588;10.176;2022-12-18T06:24:23;-8.10;99.90
17202;DHT22;8717;53.588;10.176;2022-12-18T06:26:49;-8.10;99.90
17202;DHT22;8717;53.588;10.176;2022-12-18T06:29:18;-8.10;99.90
17202;DHT22;8717;53.588;10.176;2022-12-18T06:31:45;-8.10;99.90
17202;DHT22;8717;53.588;10.176;2022-12-18T06:34:12;-8.20;99.90
17202;DHT22;8717;53.588;10.176;2022-12-18T06:36:38;-8.20;99.90
17202;DHT22;8717;53.588;10.176;2022-12-18T06:39:05;-8.20;99.90
17202;DHT22;8717;53.588;10.176;2022-12-18T06:41:32;-8.20;99.90
17202;DHT22;8717;53.588;10.176;2022-12-18T06:43:59;-8.20;99.90
17202;DHT22;8717;53.588;10.176;2022-12-18T06:46:27;-8.20;99.90
17202;DHT22;8717;53.588;10.176;2022-12-18T06:48:53;-8.20;99.90
17202;DHT22;8717;53.588;10.176;2022-12-18T06:51:21;-8.30;99.90
17202;DHT22;8717;53.588;10.176;2022-12-18T06:53:48;-8.20;99.90
17202;DHT22;8717;53.588;10.176;2022-12-18T06:56:15;-8.20;99.90
17202;DHT22;8717;53.588;10.176;2022-12-18T06:58:42;-8.30;99.90
17202;DHT22;8717;53.588;10.176;2022-12-18T07:01:10;-8.30;99.90
17202;DHT22;8717;53.588;10.176;2022-12-18T07:03:39;-8.30;99.90
17202;DHT22;8717;53.588;10.176;2022-12-18T07:06:13;-8.30;99.90
17202;DHT22;8717;53.588;10.176;2022-12-18T07:08:41;-8.20;99.90
17202;DHT22;8717;53.588;10.176;2022-12-18T07:11:08;-8.20;99.90
17202;DHT22;8717;53.588;10.176;2022-12-18T07:13:34;-8.20;99.90
17202;DHT22;8717;53.588;10.176;2022-12-18T07:16:04;-8.20;99.90
17202;DHT22;8717;53.588;10.176;2022-12-18T07:18:31;-8.20;99.90
17202;DHT22;8717;53.588;10.176;2022-12-18T07:21:02;-8.10;99.90
17202;DHT22;8717;53.588;10.176;2022-12-18T07:23:29;-8.10;99.90
17202;DHT22;8717;53.588;10.176;2022-12-18T07:26:04;-8.10;99.90
17202;DHT22;8717;53.588;10.176;2022-12-18T07:28:31;-8.10;99.90
17202;DHT22;8717;53.588;10.176;2022-12-18T07:30:58;-8.10;99.90
17202;DHT22;8717;53.588;10.176;2022-12-18T07:33:25;-8.10;99.90
17202;DHT22;8717;53.588;10.176;2022-12-18T07:35:52;-8.10;99.90
17202;DHT22;8717;53.588;10.176;2022-12-18T07:38:20;-8.10;99.90
17202;DHT22;8717;53.588;10.176;2022-12-18T07:40:47;-8.10;99.90
17202;DHT22;8717;53.588;10.176;2022-12-18T07:43:13;-8.00;99.90
17202;DHT22;8717;53.588;10.176;2022-12-18T07:45:40;-8.00;99.90
17202;DHT22;8717;53.588;10.176;2022-12-18T07:48:08;-8.00;99.90
17202;DHT22;8717;53.588;10.176;2022-12-18T07:50:35;-8.00;99.90
17202;DHT22;8717;53.588;10.176;2022-12-18T07:53:01;-8.00;99.90
17202;DHT22;8717;53.588;10.176;2022-12-18T07:55:31;-8.00;99.90
17202;DHT22;8717;53.588;10.176;2022-12-18T07:58:00;-8.00;99.90
17202;DHT22;8717;53.588;10.176;2022-12-18T08:00:27;-8.00;99.90
17202;DHT22;8717;53.588;10.176;2022-12-18T08:02:54;-7.90;99.90
17202;DHT22;8717;53.588;10.176;2022-12-18T08:05:21;-7.90;99.90
17202;DHT22;8717;53.588;10.176;2022-12-18T08:07:47;-7.90;99.90
17202;DHT22;8717;53.588;10.176;2022-12-18T08:10:14;-7.90;99.90
17202;DHT22;8717;53.588;10.176;2022-12-18T08:12:43;-7.80;99.90
17202;DHT22;8717;53.588;10.176;2022-12-18T08:15:11;-7.90;99.90
17202;DHT22;8717;53.588;10.176;2022-12-18T08:17:38;-7.80;99.90
17202;DHT22;8717;53.588;10.176;2022-12-18T08:20:05;-7.80;99.90
17202;DHT22;8717;53.588;10.176;2022-12-18T08:22:33;-7.70;99.90
17202;DHT22;8717;53.588;10.176;2022-12-18T08:25:03;-7.60;99.90
17202;DHT22;8717;53.588;10.176;2022-12-18T08:27:30;-7.40;99.90
17202;DHT22;8717;53.588;10.176;2022-12-18T08:29:58;-7.10;99.90
17202;DHT22;8717;53.588;10.176;2022-12-18T08:32:26;-6.80;99.90
17202;DHT22;8717;53.588;10.176;2022-12-18T08:34:53;-6.50;99.90
17202;DHT22;8717;53.588;10.176;2022-12-18T08:37:22;-6.10;99.90
17202;DHT22;8717;53.588;10.176;2022-12-18T08:39:48;-5.80;99.90
17202;DHT22;8717;53.588;10.176;2022-12-18T08:42:15;-5.50;99.90
17202;DHT22;8717;53.588;10.176;2022-12-18T08:45:02;-5.20;99.90
17202;DHT22;8717;53.588;10.176;2022-12-18T08:47:30;-4.80;99.90
17202;DHT22;8717;53.588;10.176;2022-12-18T08:49:57;-4.60;99.90
17202;DHT22;8717;53.588;10.176;2022-12-18T08:52:23;-4.30;99.90
17202;DHT22;8717;53.588;10.176;2022-12-18T08:54:50;-4.10;99.90
17202;DHT22;8717;53.588;10.176;2022-12-18T08:57:17;-3.90;99.90
17202;DHT22;8717;53.588;10.176;2022-12-18T08:59:43;-3.70;99.90
17202;DHT22;8717;53.588;10.176;2022-12-18T09:02:11;-3.60;99.90
17202;DHT22;8717;53.588;10.176;2022-12-18T09:04:38;-3.40;99.90
17202;DHT22;8717;53.588;10.176;2022-12-18T09:07:05;-3.30;99.90
17202;DHT22;8717;53.588;10.176;2022-12-18T09:09:32;-3.20;99.90
17202;DHT22;8717;53.588;10.176;2022-12-18T09:11:59;-3.10;99.90
17202;DHT22;8717;53.588;10.176;2022-12-18T09:14:25;-3.00;99.90
17202;DHT22;8717;53.588;10.176;2022-12-18T09:16:52;-2.90;99.90
17202;DHT22;8717;53.588;10.176;2022-12-18T09:19:22;-2.80;99.90
17202;DHT22;8717;53.588;10.176;2022-12-18T09:21:48;-2.60;99.90
17202;DHT22;8717;53.588;10.176;2022-12-18T09:24:17;-2.50;99.90
17202;DHT22;8717;53.588;10.176;2022-12-18T09:26:44;-2.30;99.90
17202;DHT22;8717;53.588;10.176;2022-12-18T09:29:10;-2.10;99.90
17202;DHT22;8717;53.588;10.176;2022-12-18T09:31:38;-2.00;99.90
17202;DHT22;8717;53.588;10.176;2022-12-18T09:34:04;-1.90;99.90
17202;DHT22;8717;53.588;10.176;2022-12-18T09:36:32;-1.80;99.90
17202;DHT22;8717;53.588;10.176;2022-12-18T09:38:59;-1.80;99.90
17202;DHT22;8717;53.588;10.176;2022-12-18T09:41:37;-1.70;99.90
17202;DHT22;8717;53.588;10.176;2022-12-18T09:44:13;-1.60;99.90
17202;DHT22;8717;53.588;10.176;2022-12-18T09:46:45;-1.50;99.90
17202;DHT22;8717;53.588;10.176;2022-12-18T09:49:16;-1.40;99.90
17202;DHT22;8717;53.588;10.176;2022-12-18T09:51:49;-1.30;99.90
17202;DHT22;8717;53.588;10.176;2022-12-18T09:54:20;-1.10;99.90
17202;DHT22;8717;53.588;10.176;2022-12-18T09:56:48;-1.10;99.90
17202;DHT22;8717;53.588;10.176;2022-12-18T09:59:21;-0.90;99.90
17202;DHT22;8717;53.588;10.176;2022-12-18T10:01:49;-0.90;99.90
17202;DHT22;8717;53.588;10.176;2022-12-18T10:04:18;-0.80;99.10
17202;DHT22;8717;53.588;10.176;2022-12-18T10:06:52;-0.80;98.00
17202;DHT22;8717;53.588;10.176;2022-12-18T10:09:27;-0.70;99.00
17202;DHT22;8717;53.588;10.176;2022-12-18T10:12:02;-0.70;98.80
17202;DHT22;8717;53.588;10.176;2022-12-18T10:14:39;-0.80;98.90
17202;DHT22;8717;53.588;10.176;2022-12-18T10:17:14;-0.90;98.90
17202;DHT22;8717;53.588;10.176;2022-12-18T10:19:48;-1.00;98.70
17202;DHT22;8717;53.588;10.176;2022-12-18T10:22:39;-1.00;98.70
17202;DHT22;8717;53.588;10.176;2022-12-18T10:25:18;-1.30;98.90
17202;DHT22;8717;53.588;10.176;2022-12-18T10:27:47;-1.40;98.50
17202;DHT22;8717;53.588;10.176;2022-12-18T10:30:20;-1.50;99.70
17202;DHT22;8717;53.588;10.176;2022-12-18T10:32:47;-1.60;98.20
17202;DHT22;8717;53.588;10.176;2022-12-18T10:35:18;-1.70;98.70
17202;DHT22;8717;53.588;10.176;2022-12-18T10:38:21;-1.80;98.90
17202;DHT22;8717;53.588;10.176;2022-12-18T10:40:51;-1.90;98.80
17202;DHT22;8717;53.588;10.176;2022-12-18T10:43:24;-2.00;99.30
17202;DHT22;8717;53.588;10.176;2022-12-18T10:46:12;-2.10;98.50
17202;DHT22;8717;53.588;10.176;2022-12-18T10:48:48;-2.20;99.60
17202;DHT22;8717;53.588;10.176;2022-12-18T10:51:21;-2.30;99.70
17202;DHT22;8717;53.588;10.176;2022-12-18T10:53:54;-2.40;99.10
17202;DHT22;8717;53.588;10.176;2022-12-18T10:56:22;-2.50;99.90
17202;DHT22;8717;53.588;10.176;2022-12-18T10:58:56;-2.50;99.90
17202;DHT22;8717;53.588;10.176;2022-12-18T11:01:23;-2.60;99.70
17202;DHT22;8717;53.588;10.176;2022-12-18T11:04:00;-2.60;99.90
17202;DHT22;8717;53.588;10.176;2022-12-18T11:06:28;-2.70;99.90
17202;DHT22;8717;53.588;10.176;2022-12-18T11:09:00;-2.70;99.90
17202;DHT22;8717;53.588;10.176;2022-12-18T11:11:28;-2.70;99.90
17202;DHT22;8717;53.588;10.176;2022-12-18T11:14:01;-2.70;99.90
17202;DHT22;8717;53.588;10.176;2022-12-18T11:16:30;-2.60;99.90
17202;DHT22;8717;53.588;10.176;2022-12-18T11:19:15;-2.60;99.90
17202;DHT22;8717;53.588;10.176;2022-12-18T11:21:45;-2.60;99.90
17202;DHT22;8717;53.588;10.176;2022-12-18T11:24:20;-2.60;99.90
17202;DHT22;8717;53.588;10.176;2022-12-18T11:26:47;-2.60;99.90
17202;DHT22;8717;53.588;10.176;2022-12-18T11:29:17;-2.60;99.90
17202;DHT22;8717;53.588;10.176;2022-12-18T11:31:44;-2.60;99.90
17202;DHT22;8717;53.588;10.176;2022-12-18T11:34:16;-2.60;99.90
17202;DHT22;8717;53.588;10.176;2022-12-18T11:36:45;-2.60;99.90
17202;DHT22;8717;53.588;10.176;2022-12-18T11:39:18;-2.70;99.90
17202;DHT22;8717;53.588;10.176;2022-12-18T11:41:50;-2.80;99.90
17202;DHT22;8717;53.588;10.176;2022-12-18T11:44:42;-2.80;99.90
17202;DHT22;8717;53.588;10.176;2022-12-18T11:47:16;-2.90;99.90
17202;DHT22;8717;53.588;10.176;2022-12-18T11:49:48;-2.90;99.90
17202;DHT22;8717;53.588;10.176;2022-12-18T11:52:18;-2.90;99.90
17202;DHT22;8717;53.588;10.176;2022-12-18T11:54:52;-3.00;99.90
17202;DHT22;8717;53.588;10.176;2022-12-18T11:57:31;-3.00;99.90
17202;DHT22;8717;53.588;10.176;2022-12-18T12:00:03;-2.90;99.90
17202;DHT22;8717;53.588;10.176;2022-12-18T12:03:06;-2.90;99.90
17202;DHT22;8717;53.588;10.176;2022-12-18T12:05:44;-2.90;99.90
17202;DHT22;8717;53.588;10.176;2022-12-18T12:08:20;-2.90;99.90
17202;DHT22;8717;53.588;10.176;2022-12-18T12:10:58;-2.80;99.90
17202;DHT22;8717;53.588;10.176;2022-12-18T12:13:39;-2.90;99.90
17202;DHT22;8717;53.588;10.176;2022-12-18T12:16:14;-2.80;99.90
17202;DHT22;8717;53.588;10.176;2022-12-18T12:18:51;-2.80;99.90
17202;DHT22;8717;53.588;10.176;2022-12-18T12:21:26;-2.80;99.90
17202;DHT22;8717;53.588;10.176;2022-12-18T12:24:02;-2.80;99.90
17202;DHT22;8717;53.588;10.176;2022-12-18T12:26:42;-2.80;99.90
17202;DHT22;8717;53.588;10.176;2022-12-18T12:29:23;-2.80;99.90
17202;DHT22;8717;53.588;10.176;2022-12-18T12:32:17;-2.80;99.90
17202;DHT22;8717;53.588;10.176;2022-12-18T12:34:55;-2.80;99.90
17202;DHT22;8717;53.588;10.176;2022-12-18T12:37:32;-2.80;99.90
17202;DHT22;8717;53.588;10.176;2022-12-18T12:40:03;-2.80;99.90
17202;DHT22;8717;53.588;10.176;2022-12-18T12:42:35;-2.80;99.90
17202;DHT22;8717;53.588;10.176;2022-12-18T12:45:28;-2.80;99.90
17202;DHT22;8717;53.588;10.176;2022-12-18T12:47:57;-2.80;99.90
17202;DHT22;8717;53.588;10.176;2022-12-18T12:50:24;-2.90;99.90
17202;DHT22;8717;53.588;10.176;2022-12-18T12:52:54;-2.90;99.90
17202;DHT22;8717;53.588;10.176;2022-12-18T12:55:23;-2.90;99.90
17202;DHT22;8717;53.588;10.176;2022-12-18T12:57:57;-2.90;99.90
17202;DHT22;8717;53.588;10.176;2022-12-18T13:00:29;-2.90;99.90
17202;DHT22;8717;53.588;10.176;2022-12-18T13:03:04;-2.80;99.90
17202;DHT22;8717;53.588;10.176;2022-12-18T13:05:40;-2.80;99.90
17202;DHT22;8717;53.588;10.176;2022-12-18T13:08:11;-2.80;99.90
17202;DHT22;8717;53.588;10.176;2022-12-18T13:10:39;-2.80;99.90
17202;DHT22;8717;53.588;10.176;2022-12-18T13:13:09;-2.80;99.90
17202;DHT22;8717;53.588;10.176;2022-12-18T13:15:38;-2.80;99.90
17202;DHT22;8717;53.588;10.176;2022-12-18T13:18:12;-2.70;99.90
17202;DHT22;8717;53.588;10.176;2022-12-18T13:20:41;-2.70;99.90
17202;DHT22;8717;53.588;10.176;2022-12-18T13:23:27;-2.70;99.90
17202;DHT22;8717;53.588;10.176;2022-12-18T13:25:55;-2.70;99.90
17202;DHT22;8717;53.588;10.176;2022-12-18T13:28:51;-2.60;99.90
17202;DHT22;8717;53.588;10.176;2022-12-18T13:34:34;-2.50;99.90
17202;DHT22;8717;53.588;10.176;2022-12-18T13:37:40;-2.40;99.90
17202;DHT22;8717;53.588;10.176;2022-12-18T13:43:32;-2.50;99.90
17202;DHT22;8717;53.588;10.176;2022-12-18T13:46:17;-2.50;99.90
17202;DHT22;8717;53.588;10.176;2022-12-18T13:49:00;-2.50;99.90
17202;DHT22;8717;53.588;10.176;2022-12-18T13:51:28;-2.60;99.90
17202;DHT22;8717;53.588;10.176;2022-12-18T13:53:58;-2.70;99.90
17202;DHT22;8717;53.588;10.176;2022-12-18T13:56:28;-2.70;99.90
17202;DHT22;8717;53.588;10.176;2022-12-18T13:59:18;-2.80;99.90
17202;DHT22;8717;53.588;10.176;2022-12-18T14:01:47;-2.90;99.90
17202;DHT22;8717;53.588;10.176;2022-12-18T14:04:20;-2.90;99.90
17202;DHT22;8717;53.588;10.176;2022-12-18T14:06:49;-3.10;99.90
17202;DHT22;8717;53.588;10.176;2022-12-18T14:09:20;-3.10;99.90
17202;DHT22;8717;53.588;10.176;2022-12-18T14:11:50;-3.20;99.90
17202;DHT22;8717;53.588;10.176;2022-12-18T14:14:19;-3.30;99.90
17202;DHT22;8717;53.588;10.176;2022-12-18T14:16:47;-3.40;99.90
17202;DHT22;8717;53.588;10.176;2022-12-18T14:19:16;-3.40;99.90
17202;DHT22;8717;53.588;10.176;2022-12-18T14:21:46;-3.50;99.90
17202;DHT22;8717;53.588;10.176;2022-12-18T14:24:14;-3.50;99.90
17202;DHT22;8717;53.588;10.176;2022-12-18T14:26:42;-3.60;99.90
17202;DHT22;8717;53.588;10.176;2022-12-18T14:29:21;-3.60;99.90
17202;DHT22;8717;53.588;10.176;2022-12-18T14:32:06;-3.60;99.90
17202;DHT22;8717;53.588;10.176;2022-12-18T14:34:33;-3.70;99.90
17202;DHT22;8717;53.588;10.176;2022-12-18T14:37:00;-3.70;99.90
17202;DHT22;8717;53.588;10.176;2022-12-18T14:39:27;-3.80;99.90
17202;DHT22;8717;53.588;10.176;2022-12-18T14:41:54;-3.80;99.90
17202;DHT22;8717;53.588;10.176;2022-12-18T14:44:22;-3.80;99.90
17202;DHT22;8717;53.588;10.176;2022-12-18T14:46:49;-3.90;99.90
17202;DHT22;8717;53.588;10.176;2022-12-18T14:49:23;-3.90;99.90
17202;DHT22;8717;53.588;10.176;2022-12-18T14:51:52;-4.00;99.90
17202;DHT22;8717;53.588;10.176;2022-12-18T14:54:20;-4.00;99.90
17202;DHT22;8717;53.588;10.176;2022-12-18T14:56:49;-4.10;99.90
17202;DHT22;8717;53.588;10.176;2022-12-18T14:59:20;-4.10;99.90
17202;DHT22;8717;53.588;10.176;2022-12-18T15:01:55;-4.20;99.90
17202;DHT22;8717;53.588;10.176;2022-12-18T15:04:26;-4.20;99.90
17202;DHT22;8717;53.588;10.176;2022-12-18T15:07:08;-4.30;99.90
17202;DHT22;8717;53.588;10.176;2022-12-18T15:09:36;-4.40;99.90
17202;DHT22;8717;53.588;10.176;2022-12-18T15:12:04;-4.40;99.90
17202;DHT22;8717;53.588;10.176;2022-12-18T15:14:33;-4.50;99.90
17202;DHT22;8717;53.588;10.176;2022-12-18T15:17:05;-4.50;99.90
17202;DHT22;8717;53.588;10.176;2022-12-18T15:19:37;-4.60;99.90
17202;DHT22;8717;53.588;10.176;2022-12-18T15:22:11;-4.60;99.90
17202;DHT22;8717;53.588;10.176;2022-12-18T15:24:42;-4.60;99.90
17202;DHT22;8717;53.588;10.176;2022-12-18T15:27:20;-4.70;99.90
17202;DHT22;8717;53.588;10.176;2022-12-18T15:30:03;-4.70;99.90
17202;DHT22;8717;53.588;10.176;2022-12-18T15:32:43;-4.80;99.90
17202;DHT22;8717;53.588;10.176;2022-12-18T15:35:14;-4.80;99.90
17202;DHT22;8717;53.588;10.176;2022-12-18T15:37:41;-4.90;99.90
17202;DHT22;8717;53.588;10.176;2022-12-18T15:40:12;-5.00;99.90
17202;DHT22;8717;53.588;10.176;2022-12-18T15:42:39;-5.00;99.90
17202;DHT22;8717;53.588;10.176;2022-12-18T15:45:23;-5.00;99.90
17202;DHT22;8717;53.588;10.176;2022-12-18T15:47:51;-5.00;99.90
17202;DHT22;8717;53.588;10.176;2022-12-18T15:50:17;-5.10;99.90
17202;DHT22;8717;53.588;10.176;2022-12-18T15:52:45;-5.10;99.90
17202;DHT22;8717;53.588;10.176;2022-12-18T15:55:13;-5.10;99.90
17202;DHT22;8717;53.588;10.176;2022-12-18T15:57:58;-5.10;99.90
17202;DHT22;8717;53.588;10.176;2022-12-18T16:00:25;-5.10;99.90